sensor_id;sensor_type;location;lat;lon;timestamp;pressure;altitude;pressure_sealevel;temperature;humidity
57192;BME280;43052;52.588;13.396;2023-05-09T00:01:04;102025.06;;;9.31;52.40
57192;BME280;43052;52.588;13.396;2023-05-09T00:03:30;102020.75;;;9.32;52.32
57192;BME280;43052;52.588;13.396;2023-05-09T00:05:57;102017.41;;;9.40;51.98
57192;BME280;43052;52.588;13.396;2023-05-09T00:08:22;102012.16;;;9.37;52.11
57192;BME280;43052;52.588;13.396;2023-05-09T00:10:47;102019.91;;;9.34;52.28
57192;BME280;43052;52.588;13.396;2023-05-09T00:13:12;102018.88;;;9.26;52.30
57192;BME280;43052;52.588;13.396;2023-05-09T00:15:38;102024.03;;;9.23;52.58
57192;BME280;43052;52.588;13.396;2023-05-09T00:18:03;102024.78;;;9.17;52.83
57192;BME280;43052;52.588;13.396;2023-05-09T00:20:28;102024.94;;;9.23;52.73
57192;BME280;43052;52.588;13.396;2023-05-09T00:22:54;102019.66;;;9.22;52.76
57192;BME280;43052;52.588;13.396;2023-05-09T00:25:19;102017.00;;;9.19;52.75
57192;BME280;43052;52.588;13.396;2023-05-09T00:27:44;102022.13;;;9.14;53.14
57192;BME280;43052;52.588;13.396;2023-05-09T00:30:10;102022.88;;;9.07;53.19
57192;BME280;43052;52.588;13.396;2023-05-09T00:32:35;102032.47;;;9.09;53.04
57192;BME280;43052;52.588;13.396;2023-05-09T00:35:01;102023.66;;;9.04;52.82
57192;BME280;43052;52.588;13.396;2023-05-09T00:37:28;102030.63;;;9.04;53.21
57192;BME280;43052;52.588;13.396;2023-05-09T00:39:54;102027.00;;;8.97;53.32
57192;BME280;43052;52.588;13.396;2023-05-09T00:42:19;102023.53;;;8.98;53.32
57192;BME280;43052;52.588;13.396;2023-05-09T00:44:45;102026.03;;;8.93;53.31
57192;BME280;43052;52.588;13.396;2023-05-09T00:47:10;102033.84;;;8.92;53.63
57192;BME280;43052;52.588;13.396;2023-05-09T00:49:35;102031.13;;;8.87;53.64
57192;BME280;43052;52.588;13.396;2023-05-09T00:52:01;102029.25;;;8.80;53.81
57192;BME280;43052;52.588;13.396;2023-05-09T00:54:26;102035.19;;;8.74;53.87
57192;BME280;43052;52.588;13.396;2023-05-09T00:56:52;102026.63;;;8.80;53.91
57192;BME280;43052;52.588;13.396;2023-05-09T00:59:17;102017.06;;;8.81;53.74
57192;BME280;43052;52.588;13.396;2023-05-09T01:01:44;102013.66;;;8.83;53.96
57192;BME280;43052;52.588;13.396;2023-05-09T01:04:10;102010.94;;;8.78;54.00
57192;BME280;43052;52.588;13.396;2023-05-09T01:06:49;102006.47;;;8.73;54.15
57192;BME280;43052;52.588;13.396;2023-05-09T01:09:23;102005.59;;;8.72;54.08
57192;BME280;43052;52.588;13.396;2023-05-09T01:12:15;102001.19;;;8.70;54.16
57192;BME280;43052;52.588;13.396;2023-05-09T01:14:50;101998.56;;;8.68;54.27
57192;BME280;43052;52.588;13.396;2023-05-09T01:23:22;102000.88;;;8.56;54.58
57192;BME280;43052;52.588;13.396;2023-05-09T01:26:01;101997.34;;;8.54;54.49
57192;BME280;43052;52.588;13.396;2023-05-09T01:31:40;101997.06;;;8.41;54.75
57192;BME280;43052;52.588;13.396;2023-05-09T01:34:07;101994.25;;;8.34;54.88
57192;BME280;43052;52.588;13.396;2023-05-09T01:36:35;101985.50;;;8.30;54.72
57192;BME280;43052;52.588;13.396;2023-05-09T01:39:02;101993.19;;;8.24;55.08
57192;BME280;43052;52.588;13.396;2023-05-09T01:41:30;101989.66;;;8.22;55.18
57192;BME280;43052;52.588;13.396;2023-05-09T01:44:01;101986.25;;;8.26;55.03
57192;BME280;43052;52.588;13.396;2023-05-09T01:46:28;101981.00;;;8.24;54.92
57192;BME280;43052;52.588;13.396;2023-05-09T01:48:55;101981.75;;;8.19;54.86
57192;BME280;43052;52.588;13.396;2023-05-09T01:51:21;101988.84;;;8.26;54.86
57192;BME280;43052;52.588;13.396;2023-05-09T01:53:47;101983.59;;;8.23;54.81
57192;BME280;43052;52.588;13.396;2023-05-09T01:56:13;101987.03;;;8.22;54.92
57192;BME280;43052;52.588;13.396;2023-05-09T01:58:39;101988.75;;;8.21;54.64
57192;BME280;43052;52.588;13.396;2023-05-09T02:01:06;101977.38;;;8.18;54.57
57192;BME280;43052;52.588;13.396;2023-05-09T02:03:33;101986.88;;;8.15;54.63
57192;BME280;43052;52.588;13.396;2023-05-09T02:06:01;101994.03;;;8.23;54.27
57192;BME280;43052;52.588;13.396;2023-05-09T02:08:28;101993.13;;;8.22;54.36
57192;BME280;43052;52.588;13.396;2023-05-09T02:10:53;101982.59;;;8.18;54.39
57192;BME280;43052;52.588;13.396;2023-05-09T02:13:18;101981.59;;;8.12;54.14
57192;BME280;43052;52.588;13.396;2023-05-09T02:15:44;101979.13;;;8.19;54.14
57192;BME280;43052;52.588;13.396;2023-05-09T02:18:09;101984.25;;;8.14;54.09
57192;BME280;43052;52.588;13.396;2023-05-09T02:20:35;101980.75;;;8.13;53.77
57192;BME280;43052;52.588;13.396;2023-05-09T02:23:00;101983.38;;;8.13;53.70
57192;BME280;43052;52.588;13.396;2023-05-09T02:25:26;101992.09;;;8.15;53.28
57192;BME280;43052;52.588;13.396;2023-05-09T02:27:54;101979.00;;;8.12;52.98
57192;BME280;43052;52.588;13.396;2023-05-09T02:30:22;101992.16;;;8.19;52.88
57192;BME280;43052;52.588;13.396;2023-05-09T02:32:51;101979.06;;;8.15;52.86
57192;BME280;43052;52.588;13.396;2023-05-09T02:35:18;101981.66;;;8.15;52.54
57192;BME280;43052;52.588;13.396;2023-05-09T02:37:44;101988.00;;;8.25;51.64
57192;BME280;43052;52.588;13.396;2023-05-09T02:40:11;101993.22;;;8.27;51.98
57192;BME280;43052;52.588;13.396;2023-05-09T02:42:37;101989.66;;;8.22;51.66
57192;BME280;43052;52.588;13.396;2023-05-09T02:45:02;101984.34;;;8.19;51.58
57192;BME280;43052;52.588;13.396;2023-05-09T02:47:28;101984.53;;;8.26;51.50
57192;BME280;43052;52.588;13.396;2023-05-09T02:49:55;101974.03;;;8.23;51.05
57192;BME280;43052;52.588;13.396;2023-05-09T02:52:20;101978.53;;;8.30;50.75
57192;BME280;43052;52.588;13.396;2023-05-09T02:54:46;101981.16;;;8.30;50.78
57192;BME280;43052;52.588;13.396;2023-05-09T02:57:12;101983.75;;;8.30;50.75
57192;BME280;43052;52.588;13.396;2023-05-09T02:59:37;101981.00;;;8.23;50.80
57192;BME280;43052;52.588;13.396;2023-05-09T03:02:02;101983.59;;;8.23;51.03
57192;BME280;43052;52.588;13.396;2023-05-09T03:04:27;101977.38;;;8.18;51.01
57192;BME280;43052;52.588;13.396;2023-05-09T03:06:53;101979.97;;;8.18;51.02
57192;BME280;43052;52.588;13.396;2023-05-09T03:09:18;101978.06;;;8.10;50.87
57192;BME280;43052;52.588;13.396;2023-05-09T03:11:44;101980.72;;;8.12;50.95
57192;BME280;43052;52.588;13.396;2023-05-09T03:14:09;101978.97;;;8.11;50.99
57192;BME280;43052;52.588;13.396;2023-05-09T03:16:35;101963.28;;;8.09;51.19
57192;BME280;43052;52.588;13.396;2023-05-09T03:19:01;101950.75;;;7.94;51.42
57192;BME280;43052;52.588;13.396;2023-05-09T03:21:27;101954.25;;;7.93;51.40
57192;BME280;43052;52.588;13.396;2023-05-09T03:23:52;101942.94;;;7.94;51.11
57192;BME280;43052;52.588;13.396;2023-05-09T03:26:18;101952.63;;;8.00;51.08
57192;BME280;43052;52.588;13.396;2023-05-09T03:34:52;101950.13;;;8.03;51.20
57192;BME280;43052;52.588;13.396;2023-05-09T03:37:23;101960.75;;;8.12;51.14
57192;BME280;43052;52.588;13.396;2023-05-09T03:39:51;101953.69;;;8.07;51.40
57192;BME280;43052;52.588;13.396;2023-05-09T04:00:35;101943.69;;;8.25;51.15
57192;BME280;43052;52.588;13.396;2023-05-09T04:03:16;101935.13;;;8.31;51.14
57192;BME280;43052;52.588;13.396;2023-05-09T04:06:46;101943.00;;;8.72;50.72
57192;BME280;43052;52.588;13.396;2023-05-09T04:14:23;101926.81;;;11.16;46.23
57192;BME280;43052;52.588;13.396;2023-05-09T04:16:48;101926.31;;;11.54;44.43
57192;BME280;43052;52.588;13.396;2023-05-09T04:19:14;101931.91;;;11.96;44.16
57192;BME280;43052;52.588;13.396;2023-05-09T04:21:39;101919.84;;;12.21;43.34
57192;BME280;43052;52.588;13.396;2023-05-09T04:24:04;101935.88;;;12.71;42.51
57192;BME280;43052;52.588;13.396;2023-05-09T04:26:30;101923.75;;;13.07;41.99
57192;BME280;43052;52.588;13.396;2023-05-09T04:28:55;101929.03;;;13.32;40.52
57192;BME280;43052;52.588;13.396;2023-05-09T04:31:21;101940.50;;;13.48;40.28
57192;BME280;43052;52.588;13.396;2023-05-09T04:33:47;101951.00;;;13.79;39.65
57192;BME280;43052;52.588;13.396;2023-05-09T04:36:12;101928.19;;;14.01;39.16
57192;BME280;43052;52.588;13.396;2023-05-09T04:38:37;101929.91;;;14.25;38.17
57192;BME280;43052;52.588;13.396;2023-05-09T04:41:02;101930.72;;;14.46;38.11
57192;BME280;43052;52.588;13.396;2023-05-09T04:43:28;101937.69;;;14.70;36.65
57192;BME280;43052;52.588;13.396;2023-05-09T04:45:53;101925.41;;;14.76;37.22
57192;BME280;43052;52.588;13.396;2023-05-09T04:48:19;101934.09;;;14.90;36.36
57192;BME280;43052;52.588;13.396;2023-05-09T04:50:44;101928.75;;;15.09;36.04
57192;BME280;43052;52.588;13.396;2023-05-09T04:53:12;101929.47;;;15.32;36.05
57192;BME280;43052;52.588;13.396;2023-05-09T04:55:37;101937.03;;;15.76;35.37
57192;BME280;43052;52.588;13.396;2023-05-09T04:58:03;101930.75;;;15.95;34.51
57192;BME280;43052;52.588;13.396;2023-05-09T05:00:28;101915.34;;;15.43;35.27
57192;BME280;43052;52.588;13.396;2023-05-09T05:02:53;101918.56;;;15.79;35.37
57192;BME280;43052;52.588;13.396;2023-05-09T05:05:31;101928.19;;;15.89;34.69
57192;BME280;43052;52.588;13.396;2023-05-09T05:08:24;101908.50;;;16.21;34.23
57192;BME280;43052;52.588;13.396;2023-05-09T05:11:25;101904.69;;;16.47;33.83
57192;BME280;43052;52.588;13.396;2023-05-09T05:20:58;101915.88;;;17.86;31.92
57192;BME280;43052;52.588;13.396;2023-05-09T05:23:23;101924.78;;;18.31;31.15
57192;BME280;43052;52.588;13.396;2023-05-09T05:25:48;101928.66;;;18.14;30.87
57192;BME280;43052;52.588;13.396;2023-05-09T05:28:14;101919.03;;;18.10;31.10
57192;BME280;43052;52.588;13.396;2023-05-09T05:30:40;101914.03;;;18.40;31.38
57192;BME280;43052;52.588;13.396;2023-05-09T05:33:05;101903.31;;;18.89;30.42
57192;BME280;43052;52.588;13.396;2023-05-09T05:35:30;101914.97;;;18.80;29.98
57192;BME280;43052;52.588;13.396;2023-05-09T05:37:55;101910.19;;;18.98;30.09
57192;BME280;43052;52.588;13.396;2023-05-09T05:40:21;101904.63;;;19.48;29.68
57192;BME280;43052;52.588;13.396;2023-05-09T05:42:46;101907.53;;;19.71;28.73
57192;BME280;43052;52.588;13.396;2023-05-09T05:45:11;101904.91;;;20.06;29.22
57192;BME280;43052;52.588;13.396;2023-05-09T05:47:37;101897.47;;;20.82;27.92
57192;BME280;43052;52.588;13.396;2023-05-09T05:50:03;101897.81;;;21.00;27.60
57192;BME280;43052;52.588;13.396;2023-05-09T05:55:41;101887.53;;;20.87;26.76
57192;BME280;43052;52.588;13.396;2023-05-09T05:58:06;101887.78;;;20.79;27.80
57192;BME280;43052;52.588;13.396;2023-05-09T06:03:54;101874.38;;;20.84;26.85
57192;BME280;43052;52.588;13.396;2023-05-09T06:06:23;101870.25;;;20.72;26.24
57192;BME280;43052;52.588;13.396;2023-05-09T06:08:50;101866.56;;;20.78;26.39
57192;BME280;43052;52.588;13.396;2023-05-09T06:11:15;101871.94;;;21.05;26.14
57192;BME280;43052;52.588;13.396;2023-05-09T06:13:41;101866.91;;;20.95;25.90
57192;BME280;43052;52.588;13.396;2023-05-09T06:16:06;101869.31;;;21.58;25.69
57192;BME280;43052;52.588;13.396;2023-05-09T06:18:33;101858.19;;;22.21;25.20
57192;BME280;43052;52.588;13.396;2023-05-09T06:20:59;101851.47;;;23.27;23.77
57192;BME280;43052;52.588;13.396;2023-05-09T06:23:24;101851.69;;;23.43;22.92
57192;BME280;43052;52.588;13.396;2023-05-09T06:25:50;101852.13;;;22.88;23.40
57192;BME280;43052;52.588;13.396;2023-05-09T06:28:15;101840.72;;;22.84;23.28
57192;BME280;43052;52.588;13.396;2023-05-09T06:30:40;101843.16;;;22.68;23.36
57192;BME280;43052;52.588;13.396;2023-05-09T06:33:05;101845.94;;;22.65;23.37
57192;BME280;43052;52.588;13.396;2023-05-09T06:35:31;101837.81;;;23.55;23.06
57192;BME280;43052;52.588;13.396;2023-05-09T06:37:56;101834.41;;;23.93;22.28
57192;BME280;43052;52.588;13.396;2023-05-09T06:40:21;101829.69;;;23.58;22.90
57192;BME280;43052;52.588;13.396;2023-05-09T06:42:46;101824.69;;;23.90;22.71
57192;BME280;43052;52.588;13.396;2023-05-09T06:45:12;101824.56;;;23.93;22.20
57192;BME280;43052;52.588;13.396;2023-05-09T06:47:37;101812.91;;;23.34;22.32
57192;BME280;43052;52.588;13.396;2023-05-09T06:50:02;101828.09;;;22.89;22.94
57192;BME280;43052;52.588;13.396;2023-05-09T06:52:27;101812.75;;;22.02;24.10
57192;BME280;43052;52.588;13.396;2023-05-09T06:54:53;101813.84;;;22.20;23.63
57192;BME280;43052;52.588;13.396;2023-05-09T06:57:18;101813.13;;;22.85;23.04
57192;BME280;43052;52.588;13.396;2023-05-09T06:59:45;101804.06;;;23.11;22.63
57192;BME280;43052;52.588;13.396;2023-05-09T07:02:11;101802.16;;;23.77;22.07
57192;BME280;43052;52.588;13.396;2023-05-09T07:04:36;101802.59;;;23.26;22.85
57192;BME280;43052;52.588;13.396;2023-05-09T07:07:03;101806.13;;;22.82;23.02
57192;BME280;43052;52.588;13.396;2023-05-09T07:09:28;101790.56;;;22.49;23.58
57192;BME280;43052;52.588;13.396;2023-05-09T07:11:54;101791.84;;;22.15;24.04
57192;BME280;43052;52.588;13.396;2023-05-09T07:14:19;101786.09;;;22.50;23.80
57192;BME280;43052;52.588;13.396;2023-05-09T07:16:45;101776.38;;;22.71;23.80
57192;BME280;43052;52.588;13.396;2023-05-09T07:19:10;101774.41;;;23.19;23.40
57192;BME280;43052;52.588;13.396;2023-05-09T07:21:36;101762.91;;;23.79;22.59
57192;BME280;43052;52.588;13.396;2023-05-09T07:24:01;101771.56;;;24.61;21.95
57192;BME280;43052;52.588;13.396;2023-05-09T07:26:26;101766.63;;;25.93;20.74
57192;BME280;43052;52.588;13.396;2023-05-09T07:28:51;101751.03;;;26.96;19.69
57192;BME280;43052;52.588;13.396;2023-05-09T07:31:17;101748.94;;;27.46;18.22
57192;BME280;43052;52.588;13.396;2023-05-09T07:33:42;101754.75;;;26.94;18.55
57192;BME280;43052;52.588;13.396;2023-05-09T07:36:07;101746.22;;;25.91;19.05
57192;BME280;43052;52.588;13.396;2023-05-09T07:38:37;101744.78;;;26.17;18.86
57192;BME280;43052;52.588;13.396;2023-05-09T07:41:02;101746.50;;;26.50;18.13
57192;BME280;43052;52.588;13.396;2023-05-09T07:43:27;101739.69;;;26.45;17.96
57192;BME280;43052;52.588;13.396;2023-05-09T07:45:53;101737.63;;;26.18;18.58
57192;BME280;43052;52.588;13.396;2023-05-09T07:48:18;101737.16;;;27.04;18.15
57192;BME280;43052;52.588;13.396;2023-05-09T07:50:43;101738.91;;;26.10;18.18
57192;BME280;43052;52.588;13.396;2023-05-09T07:53:08;101746.81;;;25.29;18.81
57192;BME280;43052;52.588;13.396;2023-05-09T07:55:34;101723.91;;;25.41;18.65
57192;BME280;43052;52.588;13.396;2023-05-09T07:57:59;101725.19;;;26.63;18.01
57192;BME280;43052;52.588;13.396;2023-05-09T08:00:24;101724.69;;;27.03;17.41
57192;BME280;43052;52.588;13.396;2023-05-09T08:02:50;101724.69;;;27.03;17.40
57192;BME280;43052;52.588;13.396;2023-05-09T08:05:16;101713.22;;;27.30;17.22
57192;BME280;43052;52.588;13.396;2023-05-09T08:07:41;101708.72;;;27.88;16.47
57192;BME280;43052;52.588;13.396;2023-05-09T08:10:07;101703.66;;;27.83;16.65
57192;BME280;43052;52.588;13.396;2023-05-09T08:12:33;101719.97;;;27.66;16.62
57192;BME280;43052;52.588;13.396;2023-05-09T08:14:58;101702.72;;;27.70;16.73
57192;BME280;43052;52.588;13.396;2023-05-09T08:17:23;101704.19;;;28.03;16.31
57192;BME280;43052;52.588;13.396;2023-05-09T08:19:48;101697.47;;;28.10;15.78
57192;BME280;43052;52.588;13.396;2023-05-09T08:22:18;101700.19;;;27.24;16.36
57192;BME280;43052;52.588;13.396;2023-05-09T08:24:44;101707.59;;;26.89;16.69
57192;BME280;43052;52.588;13.396;2023-05-09T08:27:10;101704.69;;;26.16;17.07
57192;BME280;43052;52.588;13.396;2023-05-09T08:29:38;101702.34;;;26.41;17.22
57192;BME280;43052;52.588;13.396;2023-05-09T08:32:03;101704.75;;;26.93;17.00
57192;BME280;43052;52.588;13.396;2023-05-09T08:34:28;101698.56;;;27.35;16.47
57192;BME280;43052;52.588;13.396;2023-05-09T08:36:58;101681.84;;;27.88;16.28
57192;BME280;43052;52.588;13.396;2023-05-09T08:39:24;101685.16;;;28.61;15.72
57192;BME280;43052;52.588;13.396;2023-05-09T08:41:49;101682.13;;;29.70;14.84
57192;BME280;43052;52.588;13.396;2023-05-09T08:44:15;101681.53;;;29.91;15.11
57192;BME280;43052;52.588;13.396;2023-05-09T08:46:42;101689.16;;;29.60;14.77
57192;BME280;43052;52.588;13.396;2023-05-09T08:49:08;101695.19;;;29.12;15.45
57192;BME280;43052;52.588;13.396;2023-05-09T08:51:34;101681.81;;;30.12;14.13
57192;BME280;43052;52.588;13.396;2023-05-09T08:54:00;101680.31;;;29.45;14.66
57192;BME280;43052;52.588;13.396;2023-05-09T08:56:26;101674.00;;;29.96;14.85
57192;BME280;43052;52.588;13.396;2023-05-09T08:58:53;101675.38;;;30.02;14.51
57192;BME280;43052;52.588;13.396;2023-05-09T09:01:19;101670.94;;;30.85;14.63
57192;BME280;43052;52.588;13.396;2023-05-09T09:03:45;101695.22;;;31.44;13.32
57192;BME280;43052;52.588;13.396;2023-05-09T09:06:14;101684.31;;;30.27;14.02
57192;BME280;43052;52.588;13.396;2023-05-09T09:08:40;101671.59;;;29.42;14.89
57192;BME280;43052;52.588;13.396;2023-05-09T09:11:06;101670.97;;;29.88;14.21
57192;BME280;43052;52.588;13.396;2023-05-09T09:13:36;101663.44;;;30.42;13.95
57192;BME280;43052;52.588;13.396;2023-05-09T09:16:05;101658.84;;;30.31;14.47
57192;BME280;43052;52.588;13.396;2023-05-09T09:18:32;101648.53;;;31.64;14.06
57192;BME280;43052;52.588;13.396;2023-05-09T09:21:04;101648.22;;;32.01;12.92
57192;BME280;43052;52.588;13.396;2023-05-09T09:23:30;101671.66;;;31.46;13.17
57192;BME280;43052;52.588;13.396;2023-05-09T09:25:57;101657.00;;;30.07;14.45
57192;BME280;43052;52.588;13.396;2023-05-09T09:28:23;101651.94;;;30.51;14.49
57192;BME280;43052;52.588;13.396;2023-05-09T09:30:48;101661.34;;;30.70;13.97
57192;BME280;43052;52.588;13.396;2023-05-09T09:33:21;101662.06;;;29.75;14.47
57192;BME280;43052;52.588;13.396;2023-05-09T09:35:47;101637.19;;;30.44;14.08
57192;BME280;43052;52.588;13.396;2023-05-09T09:38:13;101638.03;;;30.69;14.35
57192;BME280;43052;52.588;13.396;2023-05-09T09:40:39;101633.53;;;31.03;13.97
57192;BME280;43052;52.588;13.396;2023-05-09T09:43:05;101627.25;;;29.72;14.83
57192;BME280;43052;52.588;13.396;2023-05-09T09:45:31;101620.88;;;30.45;14.54
57192;BME280;43052;52.588;13.396;2023-05-09T09:47:56;101614.78;;;31.36;13.71
57192;BME280;43052;52.588;13.396;2023-05-09T09:50:21;101637.50;;;32.11;13.42
57192;BME280;43052;52.588;13.396;2023-05-09T09:52:50;101612.03;;;30.90;14.33
57192;BME280;43052;52.588;13.396;2023-05-09T09:55:17;101611.69;;;31.40;13.91
57192;BME280;43052;52.588;13.396;2023-05-09T09:57:42;101603.38;;;32.31;13.03
57192;BME280;43052;52.588;13.396;2023-05-09T10:00:11;101603.53;;;32.51;13.01
57192;BME280;43052;52.588;13.396;2023-05-09T10:02:56;101601.22;;;31.81;13.21
57192;BME280;43052;52.588;13.396;2023-05-09T10:05:24;101591.56;;;30.88;13.60
57192;BME280;43052;52.588;13.396;2023-05-09T10:07:53;101594.75;;;31.04;13.67
57192;BME280;43052;52.588;13.396;2023-05-09T10:10:19;101611.00;;;30.22;14.24
57192;BME280;43052;52.588;13.396;2023-05-09T10:12:44;101591.81;;;28.89;14.73
57192;BME280;43052;52.588;13.396;2023-05-09T10:15:11;101593.09;;;27.90;15.10
57192;BME280;43052;52.588;13.396;2023-05-09T10:17:36;101588.81;;;27.73;15.55
57192;BME280;43052;52.588;13.396;2023-05-09T10:20:06;101593.06;;;28.57;13.95
57192;BME280;43052;52.588;13.396;2023-05-09T10:22:33;101584.50;;;29.04;13.82
57192;BME280;43052;52.588;13.396;2023-05-09T10:25:26;101576.38;;;29.30;14.40
57192;BME280;43052;52.588;13.396;2023-05-09T10:27:57;101583.09;;;28.98;14.07
57192;BME280;43052;52.588;13.396;2023-05-09T10:30:30;101590.31;;;28.85;14.39
57192;BME280;43052;52.588;13.396;2023-05-09T10:33:04;101585.53;;;28.37;14.39
57192;BME280;43052;52.588;13.396;2023-05-09T10:35:36;101585.47;;;27.96;14.55
57192;BME280;43052;52.588;13.396;2023-05-09T10:38:02;101554.78;;;25.96;16.19
57192;BME280;43052;52.588;13.396;2023-05-09T10:40:29;101567.41;;;23.15;18.59
57192;BME280;43052;52.588;13.396;2023-05-09T10:42:56;101577.97;;;21.21;21.33
57192;BME280;43052;52.588;13.396;2023-05-09T10:45:21;101563.13;;;20.13;21.76
57192;BME280;43052;52.588;13.396;2023-05-09T10:47:48;101570.41;;;19.48;23.19
57192;BME280;43052;52.588;13.396;2023-05-09T10:50:14;101580.53;;;19.03;24.13
57192;BME280;43052;52.588;13.396;2023-05-09T10:55:58;101553.06;;;18.38;25.05
57192;BME280;43052;52.588;13.396;2023-05-09T10:58:25;101551.63;;;18.26;25.08
57192;BME280;43052;52.588;13.396;2023-05-09T11:00:53;101540.63;;;18.07;26.12
57192;BME280;43052;52.588;13.396;2023-05-09T11:03:18;101554.69;;;18.09;25.87
57192;BME280;43052;52.588;13.396;2023-05-09T11:05:45;101550.47;;;18.00;25.81
57192;BME280;43052;52.588;13.396;2023-05-09T11:08:22;101532.31;;;17.85;26.59
57192;BME280;43052;52.588;13.396;2023-05-09T11:10:49;101551.78;;;17.82;26.43
57192;BME280;43052;52.588;13.396;2023-05-09T11:13:22;101537.16;;;17.66;26.72
57192;BME280;43052;52.588;13.396;2023-05-09T11:18:29;101513.06;;;17.78;26.79
57192;BME280;43052;52.588;13.396;2023-05-09T11:20:55;101516.22;;;17.94;27.24
57192;BME280;43052;52.588;13.396;2023-05-09T11:23:24;101507.13;;;18.06;26.85
57192;BME280;43052;52.588;13.396;2023-05-09T11:25:51;101497.25;;;18.13;26.95
57192;BME280;43052;52.588;13.396;2023-05-09T11:28:30;101522.63;;;18.22;26.58
57192;BME280;43052;52.588;13.396;2023-05-09T11:31:15;101510.63;;;18.08;26.90
57192;BME280;43052;52.588;13.396;2023-05-09T11:33:42;101524.41;;;17.83;27.20
57192;BME280;43052;52.588;13.396;2023-05-09T11:36:27;101492.78;;;17.77;27.01
57192;BME280;43052;52.588;13.396;2023-05-09T11:39:05;101486.66;;;17.77;27.15
57192;BME280;43052;52.588;13.396;2023-05-09T11:41:38;101493.63;;;17.79;27.42
57192;BME280;43052;52.588;13.396;2023-05-09T11:44:14;101490.03;;;17.83;27.63
57192;BME280;43052;52.588;13.396;2023-05-09T11:46:39;101455.69;;;17.80;27.16
57192;BME280;43052;52.588;13.396;2023-05-09T11:49:07;101460.25;;;17.75;27.61
57192;BME280;43052;52.588;13.396;2023-05-09T11:51:35;101467.06;;;17.84;27.84
57192;BME280;43052;52.588;13.396;2023-05-09T11:54:01;101452.81;;;17.90;26.99
57192;BME280;43052;52.588;13.396;2023-05-09T11:56:29;101456.31;;;17.92;27.46
57192;BME280;43052;52.588;13.396;2023-05-09T11:58:54;101452.63;;;17.99;26.47
57192;BME280;43052;52.588;13.396;2023-05-09T12:01:21;101450.97;;;17.93;27.05
57192;BME280;43052;52.588;13.396;2023-05-09T12:03:47;101445.69;;;17.93;26.72
57192;BME280;43052;52.588;13.396;2023-05-09T12:06:17;101439.59;;;17.90;25.43
57192;BME280;43052;52.588;13.396;2023-05-09T12:08:46;101446.69;;;17.89;25.95
57192;BME280;43052;52.588;13.396;2023-05-09T12:11:12;101429.72;;;17.98;26.08
57192;BME280;43052;52.588;13.396;2023-05-09T12:13:48;101434.09;;;17.99;26.27
57192;BME280;43052;52.588;13.396;2023-05-09T12:16:15;101428.88;;;17.96;25.56
57192;BME280;43052;52.588;13.396;2023-05-09T12:18:49;101434.25;;;17.91;26.35
57192;BME280;43052;52.588;13.396;2023-05-09T12:21:16;101402.44;;;17.94;26.10
57192;BME280;43052;52.588;13.396;2023-05-09T12:23:41;101408.56;;;17.98;25.88
57192;BME280;43052;52.588;13.396;2023-05-09T12:26:07;101400.50;;;18.03;26.73
57192;BME280;43052;52.588;13.396;2023-05-09T12:28:33;101402.91;;;18.12;27.26
57192;BME280;43052;52.588;13.396;2023-05-09T12:30:58;101392.91;;;18.23;28.15
57192;BME280;43052;52.588;13.396;2023-05-09T12:33:24;101413.50;;;18.43;27.30
57192;BME280;43052;52.588;13.396;2023-05-09T12:38:31;101390.78;;;18.36;25.51
57192;BME280;43052;52.588;13.396;2023-05-09T12:41:07;101385.50;;;18.35;25.84
57192;BME280;43052;52.588;13.396;2023-05-09T12:43:33;101377.59;;;18.33;25.82
57192;BME280;43052;52.588;13.396;2023-05-09T12:46:00;101387.09;;;18.40;25.89
57192;BME280;43052;52.588;13.396;2023-05-09T12:48:26;101383.59;;;18.40;26.26
57192;BME280;43052;52.588;13.396;2023-05-09T12:50:51;101378.25;;;18.41;26.08
57192;BME280;43052;52.588;13.396;2023-05-09T12:53:27;101375.56;;;18.43;25.84
57192;BME280;43052;52.588;13.396;2023-05-09T12:56:04;101386.13;;;18.44;25.87
57192;BME280;43052;52.588;13.396;2023-05-09T12:58:35;101399.38;;;18.44;25.85
57192;BME280;43052;52.588;13.396;2023-05-09T13:01:02;101364.38;;;18.33;26.36
57192;BME280;43052;52.588;13.396;2023-05-09T13:03:28;101379.91;;;18.45;26.63
57192;BME280;43052;52.588;13.396;2023-05-09T13:06:04;101361.28;;;18.48;25.95
57192;BME280;43052;52.588;13.396;2023-05-09T13:08:34;101364.06;;;18.44;25.73
57192;BME280;43052;52.588;13.396;2023-05-09T13:11:00;101356.44;;;18.33;26.61
57192;BME280;43052;52.588;13.396;2023-05-09T13:13:25;101347.44;;;18.39;26.11
57192;BME280;43052;52.588;13.396;2023-05-09T13:15:51;101335.13;;;18.38;26.50
57192;BME280;43052;52.588;13.396;2023-05-09T13:18:17;101352.34;;;18.53;26.99
57192;BME280;43052;52.588;13.396;2023-05-09T13:20:42;101351.97;;;18.65;26.75
57192;BME280;43052;52.588;13.396;2023-05-09T13:23:07;101342.94;;;18.72;26.24
57192;BME280;43052;52.588;13.396;2023-05-09T13:25:32;101328.59;;;18.79;26.14
57192;BME280;43052;52.588;13.396;2023-05-09T13:27:58;101333.78;;;18.83;26.44
57192;BME280;43052;52.588;13.396;2023-05-09T13:30:23;101313.38;;;18.86;26.08
57192;BME280;43052;52.588;13.396;2023-05-09T13:32:49;101326.75;;;18.82;26.00
57192;BME280;43052;52.588;13.396;2023-05-09T13:35:15;101313.06;;;18.67;26.35
57192;BME280;43052;52.588;13.396;2023-05-09T13:37:41;101316.47;;;18.71;26.47
57192;BME280;43052;52.588;13.396;2023-05-09T13:40:07;101303.91;;;18.77;25.63
57192;BME280;43052;52.588;13.396;2023-05-09T13:42:33;101302.47;;;18.67;25.95
57192;BME280;43052;52.588;13.396;2023-05-09T13:44:59;101296.47;;;18.60;26.28